Time;durP1;ratioP1;P1;durP2;ratioP2;P2;SDS_P1;SDS_P2;PMS_P1;PMS_P2;Temp;Humidity;BMP_temperature;BMP_pressure;BME280_temperature;BME280_humidity;BME280_pressure;Samples;Min_cycle;Max_cycle;Signal;HPM_P1;HPM_P2
2021/06/28 00:00:54;;;;;;;5.80;3.95;;;;;;;;;;5047934;28;20061;-81
2021/06/28 00:03:22;;;;;;;5.43;3.95;;;;;;;;;;5032992;28;20053;-80
2021/06/28 00:05:50;;;;;;;4.85;3.50;;;;;;;;;;5051295;28;20099;-81
2021/06/28 00:08:17;;;;;;;5.32;3.78;;;;;;;;;;5052260;28;20080;-80
2021/06/28 00:10:44;;;;;;;5.32;4.00;;;;;;;;;;5051339;28;20057;-81
2021/06/28 00:13:10;;;;;;;4.75;3.70;;;;;;;;;;5056711;28;20084;-82
2021/06/28 00:15:38;;;;;;;6.32;3.60;;;;;;;;;;5057251;28;20030;-80
2021/06/28 00:18:07;;;;;;;5.88;3.70;;;;;;;;;;5057065;28;20033;-80
2021/06/28 00:20:35;;;;;;;4.55;3.25;;;;;;;;;;5045808;28;20053;-81
2021/06/28 00:23:02;;;;;;;4.05;2.90;;;;;;;;;;5036620;28;20045;-80
2021/06/28 00:25:30;;;;;;;3.75;2.58;;;;;;;;;;5037169;28;20057;-82
2021/06/28 00:27:57;;;;;;;4.15;2.80;;;;;;;;;;5038320;28;20054;-82
2021/06/28 00:30:24;;;;;;;4.25;2.50;;;;;;;;;;5040565;28;20131;-79
2021/06/28 00:32:51;;;;;;;4.47;2.92;;;;;;;;;;5041310;28;20072;-81
2021/06/28 00:35:21;;;;;;;4.90;3.20;;;;;;;;;;5039980;28;20510;-81
2021/06/28 00:37:48;;;;;;;4.93;3.25;;;;;;;;;;5040224;28;20053;-81
2021/06/28 00:40:17;;;;;;;4.80;3.33;;;;;;;;;;5039839;28;20060;-81
2021/06/28 00:42:44;;;;;;;4.55;3.30;;;;;;;;;;5040270;28;20049;-81
2021/06/28 00:45:19;;;;;;;5.18;3.30;;;;;;;;;;5040342;28;20095;-80
2021/06/28 00:47:46;;;;;;;4.60;3.50;;;;;;;;;;5040129;28;20045;-81
2021/06/28 00:50:14;;;;;;;5.05;3.60;;;;;;;;;;5040544;28;20046;-81
2021/06/28 00:52:43;;;;;;;4.80;3.72;;;;;;;;;;5040051;28;20160;-81
2021/06/28 00:55:11;;;;;;;5.80;3.67;;;;;;;;;;5039744;28;20041;-82
2021/06/28 00:57:39;;;;;;;6.35;3.42;;;;;;;;;;5040738;28;20449;-82
2021/06/28 01:00:07;;;;;;;4.80;3.30;;;;;;;;;;5039593;28;20045;-82
2021/06/28 01:02:34;;;;;;;5.65;3.55;;;;;;;;;;5039805;28;20103;-83
2021/06/28 01:05:02;;;;;;;4.60;3.50;;;;;;;;;;5040288;28;20048;-79
2021/06/28 01:07:29;;;;;;;5.13;3.63;;;;;;;;;;5045130;28;20072;-82
2021/06/28 01:09:57;;;;;;;5.28;3.13;;;;;;;;;;5041024;28;20168;-82
2021/06/28 01:12:24;;;;;;;5.68;3.25;;;;;;;;;;5040459;28;20049;-82
2021/06/28 01:14:52;;;;;;;4.40;3.10;;;;;;;;;;5041175;28;20049;-81
2021/06/28 01:17:19;;;;;;;6.32;3.60;;;;;;;;;;5040750;28;20045;-82
2021/06/28 01:19:53;;;;;;;5.80;3.30;;;;;;;;;;5042873;28;20052;-80
2021/06/28 01:22:25;;;;;;;6.22;3.92;;;;;;;;;;5056313;28;20041;-81
2021/06/28 01:24:55;;;;;;;5.32;3.60;;;;;;;;;;5042463;28;20103;-80
2021/06/28 01:27:22;;;;;;;5.88;3.72;;;;;;;;;;5042311;28;20050;-80
2021/06/28 01:29:49;;;;;;;5.47;3.65;;;;;;;;;;5039061;28;20442;-80
2021/06/28 01:32:15;;;;;;;5.38;3.42;;;;;;;;;;5036992;28;20045;-81
2021/06/28 01:34:42;;;;;;;8.68;4.32;;;;;;;;;;5037234;28;20103;-81
2021/06/28 01:37:19;;;;;;;6.15;4.35;;;;;;;;;;5039497;28;20050;-81
2021/06/28 01:39:46;;;;;;;5.90;3.35;;;;;;;;;;5038305;28;20049;-81
2021/06/28 01:42:14;;;;;;;4.15;2.80;;;;;;;;;;5038434;28;20517;-82
2021/06/28 01:44:41;;;;;;;4.28;2.75;;;;;;;;;;5039327;28;20049;-81
2021/06/28 01:47:08;;;;;;;4.60;2.90;;;;;;;;;;5039475;28;20060;-82
2021/06/28 01:49:35;;;;;;;4.00;2.47;;;;;;;;;;5043250;28;20482;-79
2021/06/28 01:52:02;;;;;;;3.70;2.13;;;;;;;;;;5053190;28;20039;-81
2021/06/28 01:54:28;;;;;;;4.45;2.30;;;;;;;;;;5038435;28;20461;-81
2021/06/28 01:56:55;;;;;;;3.58;2.15;;;;;;;;;;5038528;28;20048;-81
2021/06/28 01:59:25;;;;;;;3.75;2.30;;;;;;;;;;5047486;28;20472;-81
2021/06/28 02:01:52;;;;;;;4.45;2.13;;;;;;;;;;5019774;28;20104;-81
2021/06/28 02:04:22;;;;;;;4.00;2.15;;;;;;;;;;5018988;28;20049;-81
2021/06/28 02:06:49;;;;;;;3.58;2.35;;;;;;;;;;5026576;28;20057;-80
2021/06/28 02:09:16;;;;;;;4.15;2.60;;;;;;;;;;5018918;28;20447;-81
2021/06/28 02:11:43;;;;;;;2.92;1.83;;;;;;;;;;5018635;28;20046;-82
2021/06/28 02:14:10;;;;;;;3.53;2.20;;;;;;;;;;5017957;28;20057;-81
2021/06/28 02:16:38;;;;;;;4.60;2.15;;;;;;;;;;5018503;28;20050;-81
2021/06/28 02:19:05;;;;;;;3.97;2.35;;;;;;;;;;5027003;28;20651;-81
2021/06/28 02:21:31;;;;;;;3.97;2.20;;;;;;;;;;5017164;28;20491;-81
2021/06/28 02:23:58;;;;;;;3.25;2.08;;;;;;;;;;5018452;28;20050;-81
2021/06/28 02:26:25;;;;;;;3.38;2.22;;;;;;;;;;5018331;28;20447;-81
2021/06/28 02:28:52;;;;;;;2.75;1.88;;;;;;;;;;5017351;28;20514;-80
2021/06/28 02:31:21;;;;;;;3.38;2.20;;;;;;;;;;5017582;28;20061;-81
2021/06/28 02:33:54;;;;;;;3.25;2.03;;;;;;;;;;5018369;28;20058;-81
2021/06/28 02:36:21;;;;;;;2.88;1.90;;;;;;;;;;5021159;28;20054;-81
2021/06/28 02:38:49;;;;;;;3.30;2.13;;;;;;;;;;5024178;28;20482;-81
2021/06/28 02:41:18;;;;;;;3.78;2.00;;;;;;;;;;5019294;28;20133;-81
2021/06/28 02:43:45;;;;;;;3.30;2.00;;;;;;;;;;5019414;28;20046;-82
2021/06/28 02:46:14;;;;;;;4.63;1.92;;;;;;;;;;5018571;28;20046;-81
2021/06/28 02:48:41;;;;;;;4.22;1.90;;;;;;;;;;5019357;28;20464;-80
2021/06/28 02:51:13;;;;;;;3.03;2.15;;;;;;;;;;5018811;28;20100;-81
2021/06/28 02:53:40;;;;;;;4.00;2.30;;;;;;;;;;5019971;28;20112;-81
2021/06/28 02:56:13;;;;;;;3.22;2.22;;;;;;;;;;5019633;28;20118;-81
2021/06/28 02:58:41;;;;;;;3.30;2.05;;;;;;;;;;5018435;28;20042;-82
2021/06/28 03:01:08;;;;;;;3.20;2.10;;;;;;;;;;5033560;28;20045;-81
2021/06/28 03:03:36;;;;;;;4.63;2.25;;;;;;;;;;5040351;28;20049;-81
2021/06/28 03:06:04;;;;;;;2.75;1.85;;;;;;;;;;5042177;28;20464;-82
2021/06/28 03:08:33;;;;;;;3.08;2.20;;;;;;;;;;5042448;28;20045;-80
2021/06/28 03:11:02;;;;;;;4.65;2.67;;;;;;;;;;5040204;28;20053;-81
2021/06/28 03:13:29;;;;;;;3.40;2.25;;;;;;;;;;5037765;28;20104;-81
2021/06/28 03:15:57;;;;;;;4.72;3.20;;;;;;;;;;5038523;28;20081;-81
2021/06/28 03:18:24;;;;;;;6.00;4.43;;;;;;;;;;5039764;28;20494;-81
2021/06/28 03:23:54;;;;;;;5.80;4.40;;;;;;;;;;5038121;28;20453;-80
2021/06/28 03:26:21;;;;;;;6.40;4.57;;;;;;;;;;5038791;28;20060;-81
2021/06/28 03:28:48;;;;;;;5.32;3.97;;;;;;;;;;5039704;28;20049;-80
2021/06/28 03:31:15;;;;;;;5.07;4.05;;;;;;;;;;5038301;28;20049;-81
2021/06/28 03:33:42;;;;;;;5.32;2.85;;;;;;;;;;5038185;28;20045;-80
2021/06/28 03:36:09;;;;;;;4.38;2.55;;;;;;;;;;5038699;28;20049;-81
2021/06/28 03:38:36;;;;;;;4.07;2.95;;;;;;;;;;5041238;28;20046;-80
2021/06/28 03:41:05;;;;;;;5.80;2.72;;;;;;;;;;5041897;28;20088;-81
2021/06/28 03:43:31;;;;;;;3.90;2.50;;;;;;;;;;5041360;28;20045;-81
2021/06/28 03:45:58;;;;;;;4.88;2.50;;;;;;;;;;5051771;28;20049;-80
2021/06/28 03:48:25;;;;;;;3.85;2.60;;;;;;;;;;5052934;28;20072;-80
2021/06/28 03:50:53;;;;;;;4.85;3.38;;;;;;;;;;5047054;28;20099;-79
2021/06/28 03:53:20;;;;;;;7.13;4.53;;;;;;;;;;5040943;28;20057;-80
2021/06/28 03:55:47;;;;;;;5.85;4.35;;;;;;;;;;5042053;28;20050;-79
2021/06/28 03:58:15;;;;;;;7.57;5.20;;;;;;;;;;5038120;28;20095;-82
2021/06/28 04:00:51;;;;;;;8.50;4.80;;;;;;;;;;5038061;28;20120;-81
2021/06/28 04:03:20;;;;;;;6.78;4.38;;;;;;;;;;5039484;28;20414;-82
2021/06/28 04:05:47;;;;;;;6.88;5.05;;;;;;;;;;5040128;28;20076;-81
2021/06/28 04:08:14;;;;;;;7.05;4.55;;;;;;;;;;5039545;28;20046;-82
2021/06/28 04:10:40;;;;;;;6.88;5.20;;;;;;;;;;5039402;28;20060;-82
2021/06/28 04:13:08;;;;;;;5.60;4.30;;;;;;;;;;5040090;28;20041;-81
2021/06/28 04:15:36;;;;;;;6.97;4.40;;;;;;;;;;5040312;28;20560;-81
2021/06/28 04:18:06;;;;;;;8.32;5.50;;;;;;;;;;5038061;28;20045;-81
2021/06/28 04:20:32;;;;;;;8.75;5.55;;;;;;;;;;5035197;28;20491;-82
2021/06/28 04:23:02;;;;;;;5.93;4.70;;;;;;;;;;5034629;28;20049;-82
2021/06/28 04:25:29;;;;;;;5.93;5.15;;;;;;;;;;5034963;28;20099;-82
2021/06/28 04:27:56;;;;;;;7.78;4.60;;;;;;;;;;5034864;28;20041;-82
2021/06/28 04:30:23;;;;;;;6.90;5.55;;;;;;;;;;5036489;28;20061;-80
2021/06/28 04:32:53;;;;;;;9.52;6.25;;;;;;;;;;5036155;28;20053;-80
2021/06/28 04:35:21;;;;;;;7.68;5.90;;;;;;;;;;5037301;28;20050;-81
2021/06/28 04:37:49;;;;;;;5.72;4.78;;;;;;;;;;5036689;28;20410;-81
2021/06/28 04:40:19;;;;;;;6.68;5.00;;;;;;;;;;5037040;28;20096;-81
2021/06/28 04:42:46;;;;;;;;;;;;;;;;;;5036121;28;20136;-81
2021/06/28 04:45:13;;;;;;;8.10;5.75;;;;;;;;;;5036150;28;19925;-81
2021/06/28 04:47:41;;;;;;;7.13;5.25;;;;;;;;;;5035926;28;20057;-81
2021/06/28 04:50:12;;;;;;;6.38;5.10;;;;;;;;;;5036822;28;20054;-82
2021/06/28 04:52:43;;;;;;;6.47;5.53;;;;;;;;;;5037072;28;20054;-81
2021/06/28 04:55:13;;;;;;;7.70;6.13;;;;;;;;;;5036958;28;20049;-82
2021/06/28 04:57:40;;;;;;;9.05;8.15;;;;;;;;;;5037504;28;20379;-82
2021/06/28 05:00:09;;;;;;;6.47;4.30;;;;;;;;;;5036161;28;20045;-81
2021/06/28 05:02:36;;;;;;;5.72;3.97;;;;;;;;;;5041108;28;20103;-80
2021/06/28 05:05:05;;;;;;;5.35;3.72;;;;;;;;;;5049871;28;20079;-81
2021/06/28 05:07:34;;;;;;;4.97;4.05;;;;;;;;;;5050599;28;20104;-80
2021/06/28 05:10:01;;;;;;;5.33;4.00;;;;;;;;;;5049352;28;20053;-78
2021/06/28 05:12:28;;;;;;;4.60;3.53;;;;;;;;;;5049261;28;20053;-81
2021/06/28 05:14:55;;;;;;;5.25;3.30;;;;;;;;;;5045186;28;20495;-83
2021/06/28 05:17:24;;;;;;;4.68;3.58;;;;;;;;;;5040603;28;20079;-82
2021/06/28 05:19:51;;;;;;;6.30;3.75;;;;;;;;;;5042553;28;20095;-83
2021/06/28 05:22:18;;;;;;;4.78;3.50;;;;;;;;;;5040567;28;20041;-80
2021/06/28 05:24:47;;;;;;;5.50;3.72;;;;;;;;;;5039237;28;20119;-79
2021/06/28 05:27:13;;;;;;;6.05;4.13;;;;;;;;;;5042979;28;20503;-81
2021/06/28 05:29:43;;;;;;;5.50;3.92;;;;;;;;;;5039256;28;20049;-81
2021/06/28 05:32:09;;;;;;;4.78;3.78;;;;;;;;;;5040326;28;20049;-80
2021/06/28 05:34:36;;;;;;;6.57;3.65;;;;;;;;;;5037805;28;20046;-80
2021/06/28 05:37:04;;;;;;;5.97;4.40;;;;;;;;;;5037224;28;20526;-82
2021/06/28 05:39:34;;;;;;;5.05;4.25;;;;;;;;;;5037257;28;20095;-80
2021/06/28 05:42:03;;;;;;;4.72;3.88;;;;;;;;;;5036311;28;20049;-80
2021/06/28 05:44:29;;;;;;;6.97;4.10;;;;;;;;;;5037466;28;20457;-80
2021/06/28 05:46:57;;;;;;;5.10;4.10;;;;;;;;;;5036921;28;20045;-81
2021/06/28 05:49:24;;;;;;;5.10;3.83;;;;;;;;;;5036899;28;20045;-80
2021/06/28 05:51:51;;;;;;;5.75;4.10;;;;;;;;;;5036554;28;20568;-80
2021/06/28 05:54:19;;;;;;;5.93;4.35;;;;;;;;;;5037373;28;20048;-81
2021/06/28 05:56:46;;;;;;;7.18;4.22;;;;;;;;;;5037276;28;20041;-80
2021/06/28 05:59:14;;;;;;;6.68;4.60;;;;;;;;;;5036711;28;20080;-80
2021/06/28 06:01:41;;;;;;;5.82;4.05;;;;;;;;;;5036650;28;20529;-80
2021/06/28 06:04:13;;;;;;;6.18;4.00;;;;;;;;;;5037026;28;20088;-81
2021/06/28 06:06:41;;;;;;;5.40;4.40;;;;;;;;;;5036466;28;20045;-81
2021/06/28 06:09:08;;;;;;;4.85;4.03;;;;;;;;;;5039416;28;20104;-81
2021/06/28 06:11:35;;;;;;;6.57;4.60;;;;;;;;;;5040606;28;20042;-81
2021/06/28 06:14:02;;;;;;;6.13;4.30;;;;;;;;;;5041819;28;20053;-81
2021/06/28 06:16:30;;;;;;;6.53;4.80;;;;;;;;;;5040262;28;20049;-81
2021/06/28 06:18:58;;;;;;;5.30;4.80;;;;;;;;;;5040425;28;20049;-82
2021/06/28 06:21:25;;;;;;;6.68;5.57;;;;;;;;;;5040212;28;20052;-81
2021/06/28 06:23:53;;;;;;;6.35;4.50;;;;;;;;;;5040632;28;20050;-83
2021/06/28 06:26:21;;;;;;;6.65;4.25;;;;;;;;;;5041060;28;20042;-81
2021/06/28 06:28:48;;;;;;;6.90;4.00;;;;;;;;;;5040357;28;20050;-83
2021/06/28 06:31:14;;;;;;;7.57;4.40;;;;;;;;;;5039464;28;20453;-81
2021/06/28 06:33:42;;;;;;;6.47;4.38;;;;;;;;;;5039962;28;20049;-81
2021/06/28 06:36:09;;;;;;;6.00;4.57;;;;;;;;;;5040332;28;20054;-81
2021/06/28 06:38:36;;;;;;;5.57;4.90;;;;;;;;;;5039363;28;20486;-81
2021/06/28 06:41:03;;;;;;;7.13;4.25;;;;;;;;;;5041074;28;20046;-81
2021/06/28 06:43:30;;;;;;;5.60;4.30;;;;;;;;;;5040017;28;20041;-80
2021/06/28 06:45:58;;;;;;;5.38;4.40;;;;;;;;;;5039157;28;20392;-81
2021/06/28 06:48:25;;;;;;;4.35;3.50;;;;;;;;;;5039892;28;20049;-82
2021/06/28 06:50:54;;;;;;;6.15;4.00;;;;;;;;;;5039601;28;20132;-82
2021/06/28 06:53:21;;;;;;;4.90;4.13;;;;;;;;;;5040928;28;20045;-82
2021/06/28 06:55:48;;;;;;;4.65;3.72;;;;;;;;;;5039035;28;20056;-82
2021/06/28 06:58:14;;;;;;;5.97;3.40;;;;;;;;;;5038264;28;20049;-82
2021/06/28 07:00:43;;;;;;;7.85;4.15;;;;;;;;;;5045685;28;20061;-82
2021/06/28 07:03:10;;;;;;;6.18;4.40;;;;;;;;;;5053382;28;20087;-80
2021/06/28 07:05:37;;;;;;;6.30;4.00;;;;;;;;;;5051616;28;20046;-80
2021/06/28 07:08:07;;;;;;;5.20;4.03;;;;;;;;;;5051489;28;20117;-80
2021/06/28 07:10:33;;;;;;;5.40;4.07;;;;;;;;;;5048811;28;20052;-81
2021/06/28 07:13:00;;;;;;;5.60;4.30;;;;;;;;;;5053361;28;20502;-79
2021/06/28 07:15:27;;;;;;;8.02;3.80;;;;;;;;;;5056525;28;20084;-80
2021/06/28 07:17:54;;;;;;;5.97;4.97;;;;;;;;;;5056718;28;20049;-81
2021/06/28 07:20:22;;;;;;;4.68;3.50;;;;;;;;;;5055936;28;20049;-80
2021/06/28 07:22:51;;;;;;;6.45;3.97;;;;;;;;;;5051414;28;20052;-80
2021/06/28 07:25:20;;;;;;;6.25;4.00;;;;;;;;;;5042159;28;20049;-81
2021/06/28 07:27:48;;;;;;;5.82;3.97;;;;;;;;;;5038756;28;20076;-80
2021/06/28 07:30:18;;;;;;;6.50;3.80;;;;;;;;;;5037775;28;20104;-81
2021/06/28 07:32:46;;;;;;;6.07;4.10;;;;;;;;;;5044363;28;20046;-80
2021/06/28 07:35:13;;;;;;;7.18;3.42;;;;;;;;;;5037937;28;20099;-79
2021/06/28 07:37:41;;;;;;;5.75;3.40;;;;;;;;;;5036302;28;20491;-81
2021/06/28 07:40:10;;;;;;;4.15;2.90;;;;;;;;;;5037261;28;20048;-80
2021/06/28 07:42:38;;;;;;;5.80;3.33;;;;;;;;;;5036365;28;20513;-81
2021/06/28 07:45:08;;;;;;;5.00;3.88;;;;;;;;;;5044164;28;20076;-82
2021/06/28 07:47:35;;;;;;;6.22;3.13;;;;;;;;;;5036709;28;20045;-81
2021/06/28 07:50:03;;;;;;;4.43;3.45;;;;;;;;;;5036363;28;20053;-80
2021/06/28 07:52:30;;;;;;;5.43;3.58;;;;;;;;;;5036420;28;20115;-80
2021/06/28 07:54:59;;;;;;;5.82;3.85;;;;;;;;;;5038150;28;20076;-80
2021/06/28 08:00:49;;;;;;;5.45;3.58;;;;;;;;;;5035993;28;20056;-82
2021/06/28 08:03:16;;;;;;;5.93;3.72;;;;;;;;;;5035518;28;20384;-80
2021/06/28 08:05:43;;;;;;;5.50;3.35;;;;;;;;;;5035496;28;20053;-79
2021/06/28 08:08:09;;;;;;;5.97;3.33;;;;;;;;;;5034945;28;20045;-79
2021/06/28 08:10:36;;;;;;;4.43;3.00;;;;;;;;;;5037510;28;20049;-79
2021/06/28 08:13:04;;;;;;;5.05;3.60;;;;;;;;;;5046017;28;20057;-79
2021/06/28 08:15:30;;;;;;;5.30;3.65;;;;;;;;;;5043628;28;20057;-79
2021/06/28 08:17:59;;;;;;;4.43;3.70;;;;;;;;;;5040812;28;20041;-79
2021/06/28 08:20:25;;;;;;;5.20;3.42;;;;;;;;;;5034404;28;20052;-80
2021/06/28 08:22:52;;;;;;;6.72;3.38;;;;;;;;;;5034196;28;20529;-79
2021/06/28 08:25:23;;;;;;;5.45;3.45;;;;;;;;;;5034464;28;20060;-79
2021/06/28 08:27:51;;;;;;;4.72;3.45;;;;;;;;;;5034361;28;20099;-81
2021/06/28 08:30:18;;;;;;;5.10;3.42;;;;;;;;;;5034930;28;20132;-80
2021/06/28 08:32:45;;;;;;;6.30;3.50;;;;;;;;;;5034852;28;20056;-80
2021/06/28 08:35:13;;;;;;;4.50;3.42;;;;;;;;;;5035022;28;20045;-79
2021/06/28 08:37:40;;;;;;;4.35;2.97;;;;;;;;;;5035238;28;20128;-80
2021/06/28 08:40:09;;;;;;;4.60;3.13;;;;;;;;;;5034475;28;20096;-81
2021/06/28 08:42:36;;;;;;;4.30;2.97;;;;;;;;;;5034859;28;20045;-79
2021/06/28 08:45:04;;;;;;;4.25;2.80;;;;;;;;;;5033876;28;20513;-78
2021/06/28 08:47:31;;;;;;;4.13;2.97;;;;;;;;;;5034207;28;20104;-81
2021/06/28 08:49:58;;;;;;;3.83;3.03;;;;;;;;;;5037387;28;20077;-79
2021/06/28 08:52:27;;;;;;;4.10;2.70;;;;;;;;;;5037707;28;20049;-79
2021/06/28 08:54:54;;;;;;;5.30;3.22;;;;;;;;;;5037883;28;20045;-79
2021/06/28 08:57:20;;;;;;;4.38;3.03;;;;;;;;;;5038116;28;20072;-79
2021/06/28 08:59:48;;;;;;;6.63;3.70;;;;;;;;;;5038981;28;20041;-81
2021/06/28 09:02:15;;;;;;;6.28;3.20;;;;;;;;;;5038284;28;20077;-80
2021/06/28 09:04:57;;;;;;;6.97;3.90;;;;;;;;;;5038162;28;20045;-80
2021/06/28 09:07:24;;;;;;;5.57;3.33;;;;;;;;;;5038117;28;20136;-79
2021/06/28 09:09:52;;;;;;;5.85;2.90;;;;;;;;;;5038386;28;20045;-80
2021/06/28 09:12:20;;;;;;;6.95;2.85;;;;;;;;;;5038352;28;20121;-80
2021/06/28 09:14:48;;;;;;;4.07;2.70;;;;;;;;;;5043982;28;20041;-80
2021/06/28 09:17:29;;;;;;;4.30;3.28;;;;;;;;;;5046835;28;20053;-80
2021/06/28 09:20:15;;;;;;;6.38;3.47;;;;;;;;;;5039652;28;20045;-81
2021/06/28 09:22:42;;;;;;;6.47;3.38;;;;;;;;;;5041247;28;20057;-84
2021/06/28 09:25:29;;;;;;;5.55;3.42;;;;;;;;;;5041263;28;20050;-79
2021/06/28 09:27:56;;;;;;;3.78;3.10;;;;;;;;;;5039710;28;20050;-82
2021/06/28 09:30:23;;;;;;;5.55;3.78;;;;;;;;;;5041590;28;20076;-80
2021/06/28 09:33:34;;;;;;;7.78;4.10;;;;;;;;;;5040053;28;20063;-80
2021/06/28 09:36:01;;;;;;;5.28;3.30;;;;;;;;;;5038278;28;20053;-80
2021/06/28 09:38:38;;;;;;;6.55;3.30;;;;;;;;;;5038234;28;20050;-81
2021/06/28 09:42:04;;;;;;;4.47;3.33;;;;;;;;;;5037679;28;20056;-82
2021/06/28 09:44:32;;;;;;;3.97;2.88;;;;;;;;;;4976963;28;20122;-81
2021/06/28 09:47:07;;;;;;;4.47;3.15;;;;;;;;;;4977603;28;20047;-82
2021/06/28 09:49:34;;;;;;;5.05;3.20;;;;;;;;;;5018375;28;20049;-80
2021/06/28 09:52:01;;;;;;;4.90;2.95;;;;;;;;;;5038509;28;20105;-79
2021/06/28 09:54:28;;;;;;;3.80;2.60;;;;;;;;;;5043847;28;20132;-81
2021/06/28 09:56:55;;;;;;;5.60;2.35;;;;;;;;;;5043336;28;20053;-80
2021/06/28 09:59:28;;;;;;;7.60;2.72;;;;;;;;;;5041720;28;20060;-80
2021/06/28 10:02:22;;;;;;;5.13;3.35;;;;;;;;;;5017643;28;20046;-82
2021/06/28 10:04:54;;;;;;;3.58;2.60;;;;;;;;;;5021408;28;20050;-81
2021/06/28 10:07:23;;;;;;;4.75;2.90;;;;;;;;;;5019645;28;20046;-82
2021/06/28 10:10:17;;;;;;;3.67;2.58;;;;;;;;;;5019769;28;20491;-81
2021/06/28 10:12:47;;;;;;;5.55;2.70;;;;;;;;;;5038848;28;20053;-81
2021/06/28 10:15:16;;;;;;;4.15;2.33;;;;;;;;;;5038961;28;20049;-80
2021/06/28 10:17:45;;;;;;;3.80;2.60;;;;;;;;;;5037942;28;20392;-81
2021/06/28 10:20:15;;;;;;;4.07;2.60;;;;;;;;;;5037155;28;20053;-81
2021/06/28 10:22:46;;;;;;;3.67;2.20;;;;;;;;;;5036384;28;20060;-81
2021/06/28 10:25:16;;;;;;;3.00;2.20;;;;;;;;;;5038466;28;20050;-80
2021/06/28 10:27:43;;;;;;;3.40;2.67;;;;;;;;;;5038796;28;20076;-81
2021/06/28 10:30:13;;;;;;;3.47;2.47;;;;;;;;;;5038443;28;20103;-79
2021/06/28 10:32:41;;;;;;;5.80;2.33;;;;;;;;;;5037948;28;20062;-80
2021/06/28 10:35:13;;;;;;;3.38;2.25;;;;;;;;;;5040138;28;20642;-81
2021/06/28 10:37:43;;;;;;;10.15;2.50;;;;;;;;;;5041180;28;20406;-80
2021/06/28 10:40:12;;;;;;;4.10;2.08;;;;;;;;;;5039960;28;20081;-81
2021/06/28 10:42:41;;;;;;;3.37;2.30;;;;;;;;;;5038176;28;20060;-82
2021/06/28 10:45:10;;;;;;;4.15;2.50;;;;;;;;;;5044827;28;20305;-80
2021/06/28 10:48:10;;;;;;;3.75;2.40;;;;;;;;;;5056880;28;20053;-80
2021/06/28 10:51:00;;;;;;;7.05;4.80;;;;;;;;;;5057448;28;20053;-79
2021/06/28 10:53:43;;;;;;;;;;;;;;;;;;5058762;28;20037;-80
2021/06/28 10:56:49;;;;;;;3.10;2.10;;;;;;;;;;5038665;28;19928;-83
2021/06/28 10:59:27;;;;;;;5.68;2.28;;;;;;;;;;5038613;28;20103;-82
2021/06/28 11:01:59;;;;;;;4.72;2.20;;;;;;;;;;5020635;28;20054;-79
2021/06/28 11:04:28;;;;;;;4.45;2.45;;;;;;;;;;5019038;28;20049;-80
2021/06/28 11:07:10;;;;;;;2.97;1.77;;;;;;;;;;5018376;28;20089;-80
2021/06/28 11:09:40;;;;;;;2.53;1.92;;;;;;;;;;5018741;28;20077;-80
2021/06/28 11:12:21;;;;;;;4.32;2.05;;;;;;;;;;5032472;28;20053;-81
2021/06/28 11:15:36;;;;;;;3.25;1.88;;;;;;;;;;5038774;28;20053;-81
2021/06/28 11:18:06;;;;;;;2.85;1.70;;;;;;;;;;5037931;28;20091;-82
2021/06/28 11:20:38;;;;;;;;;;;;;;;;;;5038204;28;20053;-81
2021/06/28 11:23:10;;;;;;;2.60;1.80;;;;;;;;;;5049244;22;19921;-82
2021/06/28 11:25:44;;;;;;;3.30;2.30;;;;;;;;;;5038619;28;20049;-80
2021/06/28 11:28:23;;;;;;;3.30;2.40;;;;;;;;;;5038649;28;20123;-82
2021/06/28 11:30:56;;;;;;;4.68;3.20;;;;;;;;;;5034399;28;20517;-80
2021/06/28 11:33:43;;;;;;;2.97;2.17;;;;;;;;;;5033134;28;20049;-81
2021/06/28 11:36:40;;;;;;;20.23;12.02;;;;;;;;;;5037650;28;20049;-80
2021/06/28 11:39:31;;;;;;;5.68;3.45;;;;;;;;;;5037135;28;20053;-81
2021/06/28 11:42:25;;;;;;;12.13;7.43;;;;;;;;;;5032764;28;20053;-81
2021/06/28 11:44:58;;;;;;;5.35;4.22;;;;;;;;;;5015643;28;20053;-81
2021/06/28 11:48:12;;;;;;;7.57;5.10;;;;;;;;;;5014655;28;20418;-81
2021/06/28 11:50:41;;;;;;;4.28;2.25;;;;;;;;;;5016774;28;20450;-80
2021/06/28 11:53:10;;;;;;;4.63;2.10;;;;;;;;;;5017775;28;20056;-82
2021/06/28 11:55:40;;;;;;;3.53;2.20;;;;;;;;;;5015869;28;20446;-83
2021/06/28 11:58:08;;;;;;;2.85;2.05;;;;;;;;;;5015913;28;20100;-83
2021/06/28 12:00:35;;;;;;;3.65;2.90;;;;;;;;;;5016215;28;20085;-83
2021/06/28 12:03:14;;;;;;;3.97;2.50;;;;;;;;;;5017365;28;20042;-81
2021/06/28 12:05:42;;;;;;;2.80;1.90;;;;;;;;;;5019132;28;20053;-80
2021/06/28 12:08:10;;;;;;;3.13;1.98;;;;;;;;;;5017093;28;20108;-82
2021/06/28 12:10:39;;;;;;;2.85;1.92;;;;;;;;;;5015577;28;20042;-83
2021/06/28 12:13:07;;;;;;;2.80;2.20;;;;;;;;;;5017804;28;20801;-82
2021/06/28 12:15:34;;;;;;;5.13;2.60;;;;;;;;;;5020782;28;20049;-81
2021/06/28 12:18:06;;;;;;;3.45;2.10;;;;;;;;;;5028033;28;20041;-81
2021/06/28 12:20:36;;;;;;;2.92;2.08;;;;;;;;;;5026394;28;20072;-83
2021/06/28 12:23:09;;;;;;;3.97;1.83;;;;;;;;;;5028497;28;20102;-82
2021/06/28 12:25:38;;;;;;;4.00;3.08;;;;;;;;;;5035825;28;20057;-81
2021/06/28 12:28:05;;;;;;;6.28;3.03;;;;;;;;;;5036375;28;20061;-81
2021/06/28 12:30:36;;;;;;;3.55;2.20;;;;;;;;;;5034308;28;20038;-82
2021/06/28 12:33:08;;;;;;;3.85;2.15;;;;;;;;;;5021437;28;20100;-82
2021/06/28 12:35:35;;;;;;;2.80;2.00;;;;;;;;;;5035285;28;20103;-83
2021/06/28 12:38:06;;;;;;;9.50;7.53;;;;;;;;;;5040553;28;20045;-83
2021/06/28 12:40:36;;;;;;;2.90;2.00;;;;;;;;;;5040770;28;20045;-83
2021/06/28 12:43:07;;;;;;;3.28;2.25;;;;;;;;;;5042960;28;20053;-84
2021/06/28 12:45:36;;;;;;;3.42;2.15;;;;;;;;;;5045068;28;20065;-82
2021/06/28 12:48:05;;;;;;;3.25;2.10;;;;;;;;;;5047881;28;20072;-83
2021/06/28 12:50:36;;;;;;;2.88;2.25;;;;;;;;;;5046540;28;20057;-84
2021/06/28 12:53:11;;;;;;;3.05;2.30;;;;;;;;;;5046383;28;20086;-83
2021/06/28 12:55:38;;;;;;;6.28;2.47;;;;;;;;;;5046630;28;20041;-84
2021/06/28 12:58:08;;;;;;;4.20;2.33;;;;;;;;;;5049121;28;20087;-83
2021/06/28 13:00:36;;;;;;;4.82;2.38;;;;;;;;;;5048325;28;20053;-82
2021/06/28 13:03:06;;;;;;;5.97;3.67;;;;;;;;;;5050229;28;20049;-82
2021/06/28 13:05:37;;;;;;;3.72;2.58;;;;;;;;;;5049874;28;20107;-83
2021/06/28 13:08:29;;;;;;;3.90;2.28;;;;;;;;;;5048939;28;20049;-82
2021/06/28 13:11:06;;;;;;;4.15;2.80;;;;;;;;;;5045665;28;20029;-83
2021/06/28 13:13:39;;;;;;;6.18;2.60;;;;;;;;;;5028172;28;20057;-83
2021/06/28 13:16:20;;;;;;;4.45;2.38;;;;;;;;;;5028705;28;20056;-83
2021/06/28 13:18:55;;;;;;;4.90;3.38;;;;;;;;;;5028237;28;20092;-83
2021/06/28 13:21:24;;;;;;;6.07;2.70;;;;;;;;;;5029159;28;20053;-82
2021/06/28 13:23:54;;;;;;;4.78;2.42;;;;;;;;;;5029433;28;20050;-81
2021/06/28 13:26:26;;;;;;;4.13;2.25;;;;;;;;;;5029809;28;20054;-83
2021/06/28 13:28:59;;;;;;;3.20;2.25;;;;;;;;;;5028217;28;20046;-82
2021/06/28 13:31:27;;;;;;;4.35;2.33;;;;;;;;;;5027154;28;20050;-82
2021/06/28 13:34:06;;;;;;;3.42;2.28;;;;;;;;;;5029558;28;20046;-81
2021/06/28 13:36:33;;;;;;;6.22;2.63;;;;;;;;;;5027665;28;20056;-81
2021/06/28 13:39:00;;;;;;;3.60;2.40;;;;;;;;;;5030430;28;20105;-82
2021/06/28 13:41:50;;;;;;;4.82;2.47;;;;;;;;;;5029842;28;20050;-82
2021/06/28 13:44:19;;;;;;;5.13;2.60;;;;;;;;;;5030010;28;20061;-82
2021/06/28 13:46:46;;;;;;;4.18;2.85;;;;;;;;;;5031579;28;20058;-82
2021/06/28 13:49:24;;;;;;;5.70;3.28;;;;;;;;;;5030474;28;20286;-81
2021/06/28 13:51:56;;;;;;;4.38;2.50;;;;;;;;;;5029999;28;20049;-82
2021/06/28 13:54:24;;;;;;;3.15;2.08;;;;;;;;;;5029610;28;20064;-82
2021/06/28 13:56:51;;;;;;;3.53;2.10;;;;;;;;;;5027259;28;20072;-81
2021/06/28 13:59:19;;;;;;;6.05;2.13;;;;;;;;;;5026287;28;20069;-82
2021/06/28 14:01:46;;;;;;;3.15;1.90;;;;;;;;;;5028868;28;20065;-82
2021/06/28 14:04:13;;;;;;;5.57;2.35;;;;;;;;;;5027713;28;20136;-82
2021/06/28 14:06:40;;;;;;;4.28;2.30;;;;;;;;;;5023998;28;20081;-83
2021/06/28 14:09:08;;;;;;;3.13;1.98;;;;;;;;;;5020602;28;20478;-83
2021/06/28 14:11:37;;;;;;;4.50;1.90;;;;;;;;;;5017514;28;20112;-83
2021/06/28 14:14:04;;;;;;;3.15;2.28;;;;;;;;;;5019194;28;20099;-82
2021/06/28 14:16:32;;;;;;;6.40;3.17;;;;;;;;;;5019142;28;20054;-82
2021/06/28 14:19:01;;;;;;;4.15;3.03;;;;;;;;;;5020534;28;20076;-83
2021/06/28 14:21:35;;;;;;;4.53;2.23;;;;;;;;;;5020001;28;20046;-82
2021/06/28 14:24:05;;;;;;;3.40;1.95;;;;;;;;;;5019626;28;20042;-82
2021/06/28 14:26:34;;;;;;;5.20;2.60;;;;;;;;;;5020410;28;20058;-82
2021/06/28 14:29:01;;;;;;;4.53;2.75;;;;;;;;;;5019917;28;20049;-82
2021/06/28 14:31:32;;;;;;;4.95;3.72;;;;;;;;;;5019576;28;20061;-82
2021/06/28 14:33:59;;;;;;;4.53;2.85;;;;;;;;;;5021731;28;20134;-82
2021/06/28 14:36:26;;;;;;;4.25;2.50;;;;;;;;;;5021768;28;20050;-83
2021/06/28 14:38:59;;;;;;;4.13;2.47;;;;;;;;;;5018965;28;20058;-82
2021/06/28 14:41:29;;;;;;;3.35;2.20;;;;;;;;;;5018324;28;20058;-82
2021/06/28 14:43:56;;;;;;;3.55;2.30;;;;;;;;;;5020669;28;20049;-81
2021/06/28 14:46:25;;;;;;;2.92;2.20;;;;;;;;;;5018384;28;20045;-82
2021/06/28 14:48:53;;;;;;;3.00;2.30;;;;;;;;;;5017604;28;20141;-79
2021/06/28 14:51:23;;;;;;;6.28;2.50;;;;;;;;;;5017971;28;20510;-81
2021/06/28 14:53:50;;;;;;;4.25;2.25;;;;;;;;;;5017430;28;20110;-82
2021/06/28 14:56:17;;;;;;;3.40;2.40;;;;;;;;;;5018239;28;20054;-82
2021/06/28 14:58:44;;;;;;;3.83;2.17;;;;;;;;;;5024147;28;20057;-82
2021/06/28 15:01:11;;;;;;;4.05;2.20;;;;;;;;;;5031023;28;20541;-82
2021/06/28 15:03:38;;;;;;;3.72;2.17;;;;;;;;;;5028917;28;20055;-82
2021/06/28 15:06:07;;;;;;;2.70;1.95;;;;;;;;;;5028807;28;20477;-81